createdAt,value
2018-11-29T00:00:43.867Z,1.90
2018-11-29T00:01:43.849Z,1.92
2018-11-29T00:03:47.866Z,1.86
2018-11-29T00:04:47.887Z,1.89
2018-11-29T00:06:51.926Z,1.92
2018-11-29T00:07:51.922Z,1.89
2018-11-29T00:09:55.946Z,1.88
2018-11-29T00:10:55.959Z,1.90
2018-11-29T00:12:59.994Z,1.81
2018-11-29T00:14:00.001Z,1.77
2018-11-29T00:16:04.087Z,1.83
2018-11-29T00:17:04.033Z,1.77
2018-11-29T00:19:08.051Z,1.68
2018-11-29T00:20:08.067Z,1.79
2018-11-29T00:21:08.092Z,1.85
2018-11-29T00:22:08.118Z,1.81
2018-11-29T00:23:08.144Z,1.82
2018-11-29T00:24:08.167Z,1.71
2018-11-29T00:25:08.193Z,1.74
2018-11-29T00:26:08.221Z,1.70
2018-11-29T00:27:08.250Z,1.65
2018-11-29T00:28:08.270Z,1.67
2018-11-29T00:29:08.291Z,1.67
2018-11-29T00:30:08.316Z,1.65
2018-11-29T00:31:08.342Z,1.63
2018-11-29T00:32:08.371Z,1.63
2018-11-29T00:33:08.436Z,1.61
2018-11-29T00:34:08.420Z,1.63
2018-11-29T00:35:08.442Z,1.65
2018-11-29T00:36:08.465Z,1.61
2018-11-29T00:37:08.490Z,1.63
2018-11-29T00:38:08.517Z,1.50
2018-11-29T00:39:08.544Z,1.46
2018-11-29T00:40:08.565Z,1.47
2018-11-29T00:41:08.590Z,1.56
2018-11-29T00:42:08.617Z,1.53
2018-11-29T00:43:08.640Z,1.54
2018-11-29T00:44:08.668Z,1.50
2018-11-29T00:45:08.689Z,1.50
2018-11-29T00:46:08.714Z,1.49
2018-11-29T00:47:08.742Z,1.44
2018-11-29T00:48:08.762Z,1.44
2018-11-29T00:49:08.791Z,1.44
2018-11-29T00:50:08.812Z,1.54
2018-11-29T00:51:08.846Z,1.57
2018-11-29T00:52:08.895Z,1.54
2018-11-29T00:53:08.887Z,1.46
2018-11-29T00:54:08.911Z,1.50
2018-11-29T00:55:08.937Z,1.57
2018-11-29T00:56:08.967Z,1.56
2018-11-29T00:57:08.985Z,1.60
2018-11-29T00:58:09.009Z,1.56
2018-11-29T00:59:09.036Z,1.60
2018-11-29T01:00:09.059Z,1.57
2018-11-29T01:01:09.085Z,1.42
2018-11-29T01:02:09.112Z,1.56
2018-11-29T01:03:09.135Z,1.60
2018-11-29T01:04:09.158Z,1.56
2018-11-29T01:05:09.184Z,1.39
2018-11-29T01:06:09.208Z,1.56
2018-11-29T01:07:09.237Z,1.52
2018-11-29T01:08:09.257Z,1.49
2018-11-29T01:09:09.282Z,1.47
2018-11-29T01:10:09.306Z,1.52
2018-11-29T01:11:09.333Z,1.46
2018-11-29T01:12:09.356Z,1.52
2018-11-29T01:13:09.384Z,1.43
2018-11-29T01:14:09.406Z,1.50
2018-11-29T01:15:09.437Z,1.52
2018-11-29T01:16:09.467Z,1.57
2018-11-29T01:17:09.523Z,1.49
2018-11-29T01:18:09.505Z,1.42
2018-11-29T01:19:09.537Z,1.43
2018-11-29T01:20:09.556Z,1.46
2018-11-29T01:21:09.578Z,1.47
2018-11-29T01:22:09.654Z,1.46
2018-11-29T01:23:09.630Z,1.43
2018-11-29T01:24:09.653Z,1.38
2018-11-29T01:25:09.680Z,1.35
2018-11-29T01:26:09.703Z,1.44
2018-11-29T01:27:09.728Z,1.42
2018-11-29T01:28:09.750Z,1.42
2018-11-29T01:29:09.778Z,1.38
2018-11-29T01:30:09.801Z,1.42
2018-11-29T01:31:09.825Z,1.39
2018-11-29T01:32:09.850Z,1.50
2018-11-29T01:33:09.875Z,1.56
2018-11-29T01:34:09.901Z,1.46
2018-11-29T01:35:09.924Z,1.43
2018-11-29T01:36:09.950Z,1.39
2018-11-29T01:37:09.976Z,1.42
2018-11-29T01:38:09.998Z,1.38
2018-11-29T01:39:10.023Z,1.35
2018-11-29T01:40:10.046Z,1.31
2018-11-29T01:41:10.073Z,1.38
2018-11-29T01:42:10.097Z,1.43
2018-11-29T01:43:10.127Z,1.31
2018-11-29T01:44:10.146Z,1.39
2018-11-29T01:45:10.171Z,1.32
2018-11-29T01:46:10.198Z,1.31
2018-11-29T01:47:10.220Z,1.26
2018-11-29T01:48:10.244Z,1.35
2018-11-29T01:49:10.270Z,1.35
2018-11-29T01:50:10.296Z,1.26
2018-11-29T01:51:10.319Z,1.31
2018-11-29T01:52:10.343Z,1.31
2018-11-29T01:53:10.373Z,1.29
2018-11-29T01:54:10.395Z,1.31
2018-11-29T01:55:10.419Z,1.35
2018-11-29T01:56:10.443Z,1.21
2018-11-29T01:57:10.466Z,1.32
2018-11-29T01:58:10.491Z,1.31
2018-11-29T01:59:10.515Z,1.25
2018-11-29T02:00:10.541Z,1.28
2018-11-29T02:01:10.564Z,1.21
2018-11-29T02:02:10.590Z,1.31
2018-11-29T02:03:10.616Z,1.25
2018-11-29T02:04:10.638Z,1.17
2018-11-29T02:05:10.664Z,1.20
2018-11-29T02:06:10.687Z,1.13
2018-11-29T02:07:10.711Z,1.16
2018-11-29T02:08:10.738Z,1.14
2018-11-29T02:09:10.771Z,1.07
2018-11-29T02:10:10.787Z,1.08
2018-11-29T02:11:10.811Z,1.10
2018-11-29T02:12:10.833Z,1.11
2018-11-29T02:13:10.859Z,1.16
2018-11-29T02:14:10.882Z,1.11
2018-11-29T02:15:10.909Z,1.10
2018-11-29T02:16:10.933Z,1.11
2018-11-29T02:17:10.961Z,1.14
2018-11-29T02:18:10.981Z,1.14
2018-11-29T02:19:11.017Z,1.14
2018-11-29T02:20:11.030Z,1.10
2018-11-29T02:21:11.057Z,1.10
2018-11-29T02:22:11.085Z,1.07
2018-11-29T02:23:11.105Z,1.13
2018-11-29T02:24:11.131Z,1.11
2018-11-29T02:25:11.162Z,1.17
2018-11-29T02:26:11.179Z,1.14
2018-11-29T02:27:11.204Z,1.10
2018-11-29T02:28:11.231Z,1.13
2018-11-29T02:29:11.266Z,1.11
2018-11-29T02:30:11.279Z,1.18
2018-11-29T02:31:11.304Z,1.16
2018-11-29T02:32:11.323Z,1.11
2018-11-29T02:33:11.349Z,1.13
2018-11-29T02:34:11.375Z,1.13
2018-11-29T02:35:11.399Z,1.13
2018-11-29T02:36:11.423Z,1.14
2018-11-29T02:37:11.448Z,1.07
2018-11-29T02:38:11.471Z,1.07
2018-11-29T02:39:11.495Z,1.10
2018-11-29T02:40:11.519Z,1.10
2018-11-29T02:41:11.545Z,1.11
2018-11-29T02:42:11.570Z,1.04
2018-11-29T02:43:11.592Z,1.06
2018-11-29T02:44:11.617Z,1.06
2018-11-29T02:45:11.642Z,1.10
2018-11-29T02:46:11.666Z,1.07
2018-11-29T02:47:11.689Z,1.14
2018-11-29T02:48:11.714Z,1.16
2018-11-29T02:49:11.739Z,1.17
2018-11-29T02:50:11.776Z,1.16
2018-11-29T02:51:11.794Z,1.20
2018-11-29T02:52:11.813Z,1.16
2018-11-29T02:53:11.837Z,1.17
2018-11-29T02:54:11.862Z,1.10
2018-11-29T02:55:11.887Z,1.13
2018-11-29T02:56:11.909Z,1.14
2018-11-29T02:57:11.939Z,1.16
2018-11-29T02:58:11.961Z,1.11
2018-11-29T02:59:12.029Z,1.17
2018-11-29T03:00:12.007Z,1.17
2018-11-29T03:01:12.033Z,1.21
2018-11-29T03:02:12.055Z,1.16
2018-11-29T03:03:12.080Z,1.10
2018-11-29T03:04:12.103Z,1.11
2018-11-29T03:05:12.127Z,1.06
2018-11-29T03:06:12.157Z,1.04
2018-11-29T03:07:12.176Z,1.08
2018-11-29T03:08:12.203Z,1.06
2018-11-29T03:09:12.223Z,1.08
2018-11-29T03:10:12.247Z,1.13
2018-11-29T03:11:12.272Z,1.06
2018-11-29T03:12:12.297Z,0.95
2018-11-29T03:13:12.323Z,1.07
2018-11-29T03:14:12.350Z,1.04
2018-11-29T03:15:12.381Z,1.14
2018-11-29T03:16:12.670Z,1.04
2018-11-29T03:17:12.427Z,1.06
2018-11-29T03:18:12.443Z,1.04
2018-11-29T03:19:12.467Z,1.06
2018-11-29T03:20:12.493Z,1.08
2018-11-29T03:21:12.519Z,1.08
2018-11-29T03:22:12.542Z,1.11
2018-11-29T03:23:12.564Z,1.02
2018-11-29T03:24:12.588Z,1.14
2018-11-29T03:25:12.614Z,1.06
2018-11-29T03:26:12.636Z,1.06
2018-11-29T03:27:12.661Z,1.07
2018-11-29T03:28:12.685Z,1.11
2018-11-29T03:29:12.712Z,1.06
2018-11-29T03:30:12.734Z,1.04
2018-11-29T03:31:12.761Z,1.11
2018-11-29T03:32:12.782Z,1.10
2018-11-29T03:33:12.807Z,1.07
2018-11-29T03:34:12.832Z,1.06
2018-11-29T03:35:12.857Z,1.04
2018-11-29T03:36:12.880Z,1.02
2018-11-29T03:37:12.902Z,1.07
2018-11-29T03:38:12.960Z,1.10
2018-11-29T03:39:12.953Z,1.10
2018-11-29T03:40:12.983Z,1.13
2018-11-29T03:41:13.002Z,0.96
2018-11-29T03:42:13.025Z,1.08
2018-11-29T03:43:13.049Z,1.13
2018-11-29T03:44:13.074Z,1.14
2018-11-29T03:45:13.096Z,1.04
2018-11-29T03:46:13.124Z,1.07
2018-11-29T03:47:13.146Z,1.11
2018-11-29T03:48:13.183Z,1.11
2018-11-29T03:49:13.194Z,1.13
2018-11-29T03:50:13.231Z,0.99
2018-11-29T03:51:13.243Z,1.06
2018-11-29T03:52:13.267Z,1.08
2018-11-29T03:53:13.290Z,1.04
2018-11-29T03:54:13.316Z,1.08
2018-11-29T03:55:13.339Z,1.04
2018-11-29T03:56:13.363Z,1.07
2018-11-29T03:57:13.387Z,1.11
2018-11-29T03:58:13.412Z,1.07
2018-11-29T03:59:13.438Z,1.07
2018-11-29T04:00:13.458Z,1.17
2018-11-29T04:01:13.483Z,1.13
2018-11-29T04:02:13.508Z,1.14
2018-11-29T04:03:13.533Z,1.17
2018-11-29T04:04:13.557Z,1.13
2018-11-29T04:05:13.585Z,1.17
2018-11-29T04:06:13.605Z,1.11
2018-11-29T04:07:13.630Z,1.06
2018-11-29T04:08:13.655Z,1.14
2018-11-29T04:09:13.679Z,1.14
2018-11-29T04:10:13.707Z,1.10
2018-11-29T04:11:13.726Z,1.08
2018-11-29T04:12:13.760Z,1.07
2018-11-29T04:13:13.774Z,1.07
2018-11-29T04:14:13.799Z,1.06
2018-11-29T04:15:13.825Z,1.04
2018-11-29T04:16:13.851Z,1.08
2018-11-29T04:17:13.871Z,1.04
2018-11-29T04:18:13.896Z,1.11
2018-11-29T04:19:13.920Z,1.10
2018-11-29T04:20:13.946Z,1.06
2018-11-29T04:21:13.969Z,1.08
2018-11-29T04:22:13.997Z,1.16
2018-11-29T04:23:14.017Z,1.08
2018-11-29T04:24:14.042Z,1.07
2018-11-29T04:25:14.069Z,1.07
2018-11-29T04:26:14.090Z,1.07
2018-11-29T04:27:14.113Z,1.07
2018-11-29T04:28:14.139Z,1.04
2018-11-29T04:29:14.161Z,1.10
2018-11-29T04:30:14.192Z,1.13
2018-11-29T04:31:14.212Z,1.08
2018-11-29T04:32:14.235Z,1.02
2018-11-29T04:33:14.260Z,1.13
2018-11-29T04:34:14.284Z,1.13
2018-11-29T04:35:14.310Z,1.11
2018-11-29T04:36:14.333Z,1.14
2018-11-29T04:37:14.359Z,1.06
2018-11-29T04:38:14.382Z,1.07
2018-11-29T04:39:14.407Z,1.00
2018-11-29T04:40:14.432Z,1.00
2018-11-29T04:41:14.455Z,1.08
2018-11-29T04:42:14.479Z,1.11
2018-11-29T04:43:14.504Z,1.04
2018-11-29T04:44:14.528Z,1.04
2018-11-29T04:45:14.553Z,1.02
2018-11-29T04:46:14.575Z,1.08
2018-11-29T04:47:14.602Z,1.08
2018-11-29T04:48:14.627Z,1.04
2018-11-29T04:49:14.650Z,1.10
2018-11-29T04:50:14.673Z,1.13
2018-11-29T04:51:14.698Z,1.04
2018-11-29T04:52:14.724Z,1.07
2018-11-29T04:53:14.745Z,0.96
2018-11-29T04:54:14.774Z,0.99
2018-11-29T04:55:14.794Z,0.95
2018-11-29T04:56:14.818Z,0.92
2018-11-29T04:57:14.842Z,0.89
2018-11-29T04:58:14.868Z,0.96
2018-11-29T04:59:14.892Z,1.04
2018-11-29T05:00:14.914Z,0.96
2018-11-29T05:01:14.939Z,0.93
2018-11-29T05:02:14.964Z,0.95
2018-11-29T05:03:14.987Z,0.92
2018-11-29T05:04:15.011Z,1.02
2018-11-29T05:05:15.036Z,1.00
2018-11-29T05:06:15.060Z,1.04
2018-11-29T05:07:15.084Z,1.02
2018-11-29T05:08:15.110Z,1.06
2018-11-29T05:09:15.133Z,1.10
2018-11-29T05:10:15.155Z,1.07
2018-11-29T05:11:15.180Z,1.10
2018-11-29T05:12:15.206Z,1.10
2018-11-29T05:13:15.228Z,1.00
2018-11-29T05:14:15.254Z,1.08
2018-11-29T05:15:15.277Z,1.10
2018-11-29T05:16:15.300Z,1.04
2018-11-29T05:17:15.326Z,1.10
2018-11-29T05:18:15.349Z,1.08
2018-11-29T05:19:15.374Z,1.17
2018-11-29T05:20:15.397Z,1.04
2018-11-29T05:21:15.421Z,1.07
2018-11-29T05:22:15.450Z,0.96
2018-11-29T05:23:15.472Z,0.96
2018-11-29T05:24:15.494Z,1.08
2018-11-29T05:25:17.032Z,1.08
2018-11-29T05:26:15.543Z,1.07
2018-11-29T05:27:15.578Z,1.06
2018-11-29T05:28:15.592Z,1.02
2018-11-29T05:29:15.619Z,0.99
2018-11-29T05:30:15.641Z,1.11
2018-11-29T05:31:15.664Z,1.11
2018-11-29T05:32:15.687Z,1.11
2018-11-29T05:33:15.764Z,1.06
2018-11-29T05:34:15.736Z,1.14
2018-11-29T05:35:15.771Z,1.07
2018-11-29T05:36:15.784Z,1.06
2018-11-29T05:37:15.806Z,1.07
2018-11-29T05:38:15.833Z,1.10
2018-11-29T05:39:15.857Z,1.08
2018-11-29T05:40:15.880Z,1.16
2018-11-29T05:41:15.904Z,0.98
2018-11-29T05:42:15.930Z,1.06
2018-11-29T05:43:15.953Z,1.06
2018-11-29T05:44:15.975Z,1.02
2018-11-29T05:45:16.001Z,1.08
2018-11-29T05:46:16.054Z,1.04
2018-11-29T05:47:16.063Z,1.06
2018-11-29T05:48:16.073Z,1.11
2018-11-29T05:49:16.097Z,1.11
2018-11-29T05:50:16.137Z,1.13
2018-11-29T05:51:16.147Z,1.16
2018-11-29T05:52:16.170Z,1.16
2018-11-29T05:53:16.195Z,1.11
2018-11-29T05:54:16.219Z,1.18
2018-11-29T05:55:16.242Z,1.16
2018-11-29T05:56:16.267Z,1.24
2018-11-29T05:57:16.291Z,1.18
2018-11-29T05:58:16.317Z,1.18
2018-11-29T05:59:16.339Z,1.13
2018-11-29T06:00:16.364Z,1.07
2018-11-29T06:01:16.387Z,1.10
2018-11-29T06:02:16.413Z,1.17
2018-11-29T06:03:16.444Z,1.13
2018-11-29T06:04:16.460Z,1.17
2018-11-29T06:05:16.487Z,1.07
2018-11-29T06:06:16.516Z,1.13
2018-11-29T06:07:16.538Z,1.11
2018-11-29T06:08:16.558Z,1.16
2018-11-29T06:09:16.583Z,1.10
2018-11-29T06:10:16.607Z,1.14
2018-11-29T06:11:16.632Z,1.11
2018-11-29T06:12:16.657Z,1.13
2018-11-29T06:13:16.679Z,1.08
2018-11-29T06:14:16.704Z,1.10
2018-11-29T06:15:16.728Z,1.24
2018-11-29T06:16:16.751Z,1.28
2018-11-29T06:17:16.775Z,1.25
2018-11-29T06:18:16.802Z,1.25
2018-11-29T06:19:16.824Z,1.26
2018-11-29T06:20:16.849Z,1.29
2018-11-29T06:21:16.874Z,1.18
2018-11-29T06:22:16.898Z,1.24
2018-11-29T06:23:16.922Z,1.29
2018-11-29T06:24:16.947Z,1.24
2018-11-29T06:25:16.998Z,1.13
2018-11-29T06:26:16.996Z,1.16
2018-11-29T06:27:17.018Z,1.11
2018-11-29T06:28:17.042Z,1.13
2018-11-29T06:29:17.068Z,1.13
2018-11-29T06:30:17.094Z,1.13
2018-11-29T06:31:17.117Z,1.14
2018-11-29T06:32:17.139Z,1.07
2018-11-29T06:33:17.167Z,1.08
2018-11-29T06:34:17.188Z,1.16
2018-11-29T06:35:17.218Z,1.14
2018-11-29T06:36:17.237Z,1.11
2018-11-29T06:37:17.262Z,1.00
2018-11-29T06:38:17.290Z,1.00
2018-11-29T06:39:17.309Z,1.08
2018-11-29T06:40:17.349Z,1.06
2018-11-29T06:41:17.357Z,1.06
2018-11-29T06:42:17.383Z,1.06
2018-11-29T06:43:17.409Z,1.04
2018-11-29T06:44:17.430Z,1.08
2018-11-29T06:45:17.454Z,1.08
2018-11-29T06:46:17.481Z,1.02
2018-11-29T06:47:17.504Z,1.06
2018-11-29T06:48:17.532Z,1.17
2018-11-29T06:49:17.551Z,1.16
2018-11-29T06:50:17.575Z,1.10
2018-11-29T06:51:17.598Z,1.10
2018-11-29T06:52:17.625Z,1.08
2018-11-29T06:53:17.647Z,1.08
2018-11-29T06:54:17.671Z,1.11
2018-11-29T06:55:17.696Z,1.10
2018-11-29T06:56:17.719Z,1.11
2018-11-29T06:57:17.755Z,1.06
2018-11-29T06:58:17.771Z,1.10
2018-11-29T06:59:17.791Z,1.02
2018-11-29T07:00:17.816Z,1.07
2018-11-29T07:01:17.841Z,1.11
2018-11-29T07:02:17.864Z,1.06
2018-11-29T07:03:17.889Z,1.06
2018-11-29T07:04:17.912Z,1.06
2018-11-29T07:05:17.936Z,1.11
2018-11-29T07:06:17.961Z,1.04
2018-11-29T07:07:17.985Z,1.08
2018-11-29T07:08:18.009Z,1.04
2018-11-29T07:09:18.031Z,0.96
2018-11-29T07:10:18.056Z,1.07
2018-11-29T07:11:18.081Z,1.14
2018-11-29T07:12:18.107Z,1.08
2018-11-29T07:13:18.136Z,1.08
2018-11-29T07:14:18.153Z,1.07
2018-11-29T07:15:18.177Z,1.06
2018-11-29T07:16:18.201Z,1.10
2018-11-29T07:17:18.226Z,1.08
2018-11-29T07:18:18.250Z,1.00
2018-11-29T07:19:18.274Z,1.02
2018-11-29T07:20:18.325Z,0.92
2018-11-29T07:21:18.320Z,1.06
2018-11-29T07:22:18.347Z,1.11
2018-11-29T07:23:18.371Z,1.10
2018-11-29T07:24:18.396Z,1.06
2018-11-29T07:25:18.417Z,1.00
2018-11-29T07:26:18.442Z,1.04
2018-11-29T07:27:18.859Z,1.06
2018-11-29T07:28:18.490Z,1.07
2018-11-29T07:29:18.514Z,0.98
2018-11-29T07:30:18.538Z,1.00
2018-11-29T07:31:18.572Z,0.99
2018-11-29T07:32:18.584Z,1.04
2018-11-29T07:33:18.610Z,1.08
2018-11-29T07:34:18.634Z,1.10
2018-11-29T07:35:18.658Z,1.10
2018-11-29T07:36:18.681Z,1.13
2018-11-29T07:37:18.706Z,1.06
2018-11-29T07:38:18.731Z,1.06
2018-11-29T07:39:18.754Z,1.07
2018-11-29T07:40:18.777Z,1.00
2018-11-29T07:41:18.804Z,1.07
2018-11-29T07:42:18.826Z,1.17
2018-11-29T07:43:18.850Z,1.14
2018-11-29T07:44:18.873Z,1.24
2018-11-29T07:45:18.900Z,1.17
2018-11-29T07:46:18.922Z,1.07
2018-11-29T07:47:18.946Z,1.11
2018-11-29T07:48:18.969Z,1.13
2018-11-29T07:49:18.994Z,1.20
2018-11-29T07:50:19.021Z,1.20
2018-11-29T07:51:19.041Z,1.31
2018-11-29T07:52:19.065Z,1.24
2018-11-29T07:53:19.090Z,1.29
2018-11-29T07:54:19.170Z,1.29
2018-11-29T07:55:19.140Z,1.39
2018-11-29T07:56:19.165Z,1.43
2018-11-29T07:57:19.186Z,1.43
2018-11-29T07:58:19.211Z,1.47
2018-11-29T07:59:19.236Z,1.44
2018-11-29T08:00:19.257Z,1.52
2018-11-29T08:01:19.282Z,1.56
2018-11-29T08:02:19.308Z,1.61
2018-11-29T08:03:19.338Z,1.63
2018-11-29T08:04:19.354Z,1.61
2018-11-29T08:05:19.385Z,1.67
2018-11-29T08:06:19.405Z,1.65
2018-11-29T08:07:19.430Z,1.64
2018-11-29T08:08:19.451Z,1.70
2018-11-29T08:09:19.476Z,1.71
2018-11-29T08:10:19.501Z,1.70
2018-11-29T08:11:19.532Z,1.75
2018-11-29T08:12:19.550Z,1.74
2018-11-29T08:13:19.576Z,1.82
2018-11-29T08:14:19.598Z,1.71
2018-11-29T08:15:19.623Z,1.79
2018-11-29T08:16:19.646Z,1.72
2018-11-29T08:17:19.673Z,1.72
2018-11-29T08:18:19.696Z,1.72
2018-11-29T08:19:19.721Z,1.68
2018-11-29T08:20:19.745Z,1.68
2018-11-29T08:21:19.768Z,1.68
2018-11-29T08:22:19.796Z,1.72
2018-11-29T08:23:19.819Z,1.75
2018-11-29T08:24:19.843Z,1.74
2018-11-29T08:25:19.865Z,1.77
2018-11-29T08:26:19.890Z,1.90
2018-11-29T08:27:19.916Z,1.89
2018-11-29T08:28:19.941Z,1.89
2018-11-29T08:29:19.964Z,1.95
2018-11-29T08:30:19.988Z,2.05
2018-11-29T08:31:20.013Z,2.07
2018-11-29T08:32:20.072Z,2.08
2018-11-29T08:33:20.063Z,2.18
2018-11-29T08:34:20.171Z,2.14
2018-11-29T08:35:20.113Z,2.11
2018-11-29T08:36:20.136Z,2.12
2018-11-29T08:37:20.160Z,2.20
2018-11-29T08:38:20.185Z,2.12
2018-11-29T08:39:20.210Z,2.22
2018-11-29T08:40:20.235Z,2.30
2018-11-29T08:41:20.259Z,2.38
2018-11-29T08:42:20.284Z,2.47
2018-11-29T08:43:20.309Z,2.47
2018-11-29T08:44:20.333Z,2.53
2018-11-29T08:45:20.358Z,2.53
2018-11-29T08:46:20.383Z,2.51
2018-11-29T08:47:20.412Z,2.48
2018-11-29T08:48:20.431Z,2.40
2018-11-29T08:49:21.267Z,2.44
2018-11-29T08:50:20.490Z,2.41
2018-11-29T08:51:20.506Z,2.47
2018-11-29T08:52:20.536Z,2.50
2018-11-29T08:53:20.558Z,2.55
2018-11-29T08:54:20.582Z,2.50
2018-11-29T08:55:20.609Z,2.41
2018-11-29T08:56:20.631Z,2.47
2018-11-29T08:57:20.654Z,2.40
2018-11-29T08:58:20.679Z,2.40
2018-11-29T08:59:20.706Z,2.44
2018-11-29T09:00:20.735Z,2.44
2018-11-29T09:01:20.757Z,2.48
2018-11-29T09:02:20.785Z,2.45
2018-11-29T09:03:20.836Z,2.41
2018-11-29T09:04:20.828Z,2.40
2018-11-29T09:05:21.372Z,2.44
2018-11-29T09:06:20.878Z,2.41
2018-11-29T09:07:20.904Z,2.48
2018-11-29T09:08:20.928Z,2.51
2018-11-29T09:09:20.952Z,2.59
2018-11-29T09:10:20.983Z,2.63
2018-11-29T09:11:21.003Z,2.68
2018-11-29T09:12:21.029Z,2.68
2018-11-29T09:13:21.051Z,2.69
2018-11-29T09:14:21.076Z,2.76
2018-11-29T09:15:21.103Z,2.71
2018-11-29T09:16:21.126Z,2.65
2018-11-29T09:17:21.152Z,2.65
2018-11-29T09:18:21.184Z,2.79
2018-11-29T09:19:21.202Z,2.68
2018-11-29T09:20:21.230Z,2.68
2018-11-29T09:21:21.252Z,2.68
2018-11-29T09:22:21.295Z,2.66
2018-11-29T09:23:21.303Z,2.66
2018-11-29T09:24:21.326Z,2.73
2018-11-29T09:25:21.353Z,2.77
2018-11-29T09:26:21.377Z,2.71
2018-11-29T09:27:21.402Z,2.69
2018-11-29T09:28:21.427Z,2.73
2018-11-29T09:29:21.453Z,2.84
2018-11-29T09:30:21.480Z,2.83
2018-11-29T09:31:21.503Z,2.81
2018-11-29T09:32:21.526Z,2.83
2018-11-29T09:33:21.560Z,2.80
2018-11-29T09:34:21.577Z,2.92
2018-11-29T09:35:21.605Z,2.98
2018-11-29T09:36:21.927Z,2.99
2018-11-29T09:37:21.652Z,3.05
2018-11-29T09:38:21.679Z,3.07
2018-11-29T09:39:21.703Z,3.07
2018-11-29T09:40:21.729Z,3.10
2018-11-29T09:41:21.786Z,3.04
2018-11-29T09:42:21.777Z,3.02
2018-11-29T09:43:21.804Z,3.08
2018-11-29T09:44:21.828Z,3.26
2018-11-29T09:45:21.854Z,3.34
2018-11-29T09:46:21.879Z,3.42
2018-11-29T09:47:21.904Z,3.42
2018-11-29T09:48:21.928Z,3.39
2018-11-29T09:49:21.954Z,3.44
2018-11-29T09:50:21.980Z,3.52
2018-11-29T09:51:22.006Z,3.50
2018-11-29T09:52:22.031Z,3.57
2018-11-29T09:53:22.059Z,3.60
2018-11-29T09:54:22.081Z,3.56
2018-11-29T09:55:22.106Z,3.57
2018-11-29T09:56:22.130Z,3.70
2018-11-29T09:57:22.164Z,3.93
2018-11-29T09:58:22.184Z,4.02
2018-11-29T09:59:22.209Z,4.36
2018-11-29T10:00:27.753Z,4.43
2018-11-29T10:01:22.262Z,5.27
2018-11-29T10:02:22.286Z,6.32
2018-11-29T10:03:22.312Z,6.55
2018-11-29T10:04:22.337Z,6.27
2018-11-29T10:05:22.368Z,5.99
2018-11-29T10:06:22.392Z,5.87
2018-11-29T10:07:22.418Z,5.66
2018-11-29T10:08:26.099Z,5.59
2018-11-29T10:09:22.475Z,5.62
2018-11-29T10:10:22.497Z,5.44
2018-11-29T10:11:24.050Z,5.44
2018-11-29T10:12:22.548Z,7.00
2018-11-29T10:13:22.643Z,8.68
2018-11-29T10:14:22.651Z,10.04
2018-11-29T10:15:22.630Z,11.35
2018-11-29T10:16:22.662Z,12.59
2018-11-29T10:17:22.684Z,13.98
2018-11-29T10:18:22.723Z,15.16
2018-11-29T10:19:22.739Z,16.13
2018-11-29T10:20:22.767Z,17.06
2018-11-29T10:21:22.796Z,17.71
2018-11-29T10:22:22.826Z,18.53
2018-11-29T10:23:22.858Z,19.30
2018-11-29T10:24:22.885Z,19.75
2018-11-29T10:25:22.916Z,20.50
2018-11-29T10:26:22.946Z,21.27
2018-11-29T10:27:22.975Z,21.90
2018-11-29T10:28:23.007Z,22.48
2018-11-29T10:29:23.039Z,22.19
2018-11-29T10:30:23.070Z,22.05
2018-11-29T10:31:23.116Z,21.81
2018-11-29T10:32:23.132Z,21.98
2018-11-29T10:33:23.167Z,22.42
2018-11-29T10:34:23.197Z,22.74
2018-11-29T10:35:23.233Z,22.85
2018-11-29T10:36:23.263Z,22.84
2018-11-29T10:37:23.297Z,22.85
2018-11-29T10:38:23.332Z,22.63
2018-11-29T10:39:23.370Z,22.67
2018-11-29T10:40:23.395Z,22.91
2018-11-29T10:41:23.428Z,23.35
2018-11-29T10:42:23.492Z,23.67
2018-11-29T10:43:23.501Z,23.94
2018-11-29T10:44:23.529Z,24.04
2018-11-29T10:45:23.562Z,23.82
2018-11-29T10:46:23.598Z,23.84
2018-11-29T10:47:23.636Z,23.93
2018-11-29T10:48:23.665Z,23.89
2018-11-29T10:49:23.699Z,23.78
2018-11-29T10:50:23.734Z,23.90
2018-11-29T10:51:23.769Z,23.41
2018-11-29T10:52:23.804Z,22.86
2018-11-29T10:53:23.836Z,22.12
2018-11-29T10:54:23.874Z,22.02
2018-11-29T10:55:23.910Z,21.82
2018-11-29T10:56:23.941Z,21.46
2018-11-29T10:57:23.975Z,21.03
2018-11-29T10:58:24.010Z,20.73
2018-11-29T10:59:24.045Z,19.94
2018-11-29T11:00:24.080Z,18.97
2018-11-29T11:01:24.119Z,18.75
2018-11-29T11:02:24.151Z,18.65
2018-11-29T11:03:24.183Z,18.36
2018-11-29T11:04:24.217Z,17.86
2018-11-29T11:05:24.250Z,17.54
2018-11-29T11:06:24.284Z,17.33
2018-11-29T11:07:24.321Z,17.12
2018-11-29T11:08:24.358Z,16.75
2018-11-29T11:09:24.388Z,16.14
2018-11-29T11:10:24.424Z,15.91
2018-11-29T11:11:24.454Z,15.77
2018-11-29T11:12:24.492Z,15.66
2018-11-29T11:13:24.522Z,15.60
2018-11-29T11:14:24.625Z,15.76
2018-11-29T11:15:24.590Z,15.68
2018-11-29T11:16:24.623Z,15.66
2018-11-29T11:17:24.657Z,15.38
2018-11-29T11:18:24.691Z,15.22
2018-11-29T11:19:24.723Z,15.25
2018-11-29T11:20:24.756Z,15.23
2018-11-29T11:21:24.788Z,15.40
2018-11-29T11:22:24.822Z,15.48
2018-11-29T11:23:24.857Z,15.55
2018-11-29T11:24:24.894Z,15.60
2018-11-29T11:25:24.920Z,15.46
2018-11-29T11:26:24.958Z,15.23
2018-11-29T11:27:24.989Z,14.95
2018-11-29T11:28:25.017Z,14.87
2018-11-29T11:29:25.051Z,14.98
2018-11-29T11:30:25.084Z,15.33
2018-11-29T11:31:30.855Z,15.35
2018-11-29T11:32:25.151Z,15.41
2018-11-29T11:33:25.186Z,15.25
2018-11-29T11:34:25.213Z,15.60
2018-11-29T11:35:25.250Z,15.85
2018-11-29T11:36:25.278Z,16.07
2018-11-29T11:37:25.320Z,15.89
2018-11-29T11:38:25.345Z,16.03
2018-11-29T11:39:25.375Z,16.01
2018-11-29T11:40:25.424Z,16.32
2018-11-29T11:41:25.438Z,16.27
2018-11-29T11:42:25.470Z,15.99
2018-11-29T11:43:25.506Z,16.01
2018-11-29T11:44:25.535Z,15.62
2018-11-29T11:45:25.575Z,15.52
2018-11-29T11:46:25.622Z,15.55
2018-11-29T11:47:25.676Z,15.52
2018-11-29T11:48:25.717Z,15.23
2018-11-29T11:49:25.708Z,15.00
2018-11-29T11:50:25.728Z,14.91
2018-11-29T11:51:25.761Z,14.63
2018-11-29T11:52:25.808Z,14.42
2018-11-29T11:53:25.825Z,14.46
2018-11-29T11:54:25.855Z,14.29
2018-11-29T11:55:29.955Z,14.31
2018-11-29T11:56:25.920Z,14.27
2018-11-29T11:57:25.951Z,13.91
2018-11-29T11:58:25.984Z,13.35
2018-11-29T11:59:26.027Z,12.80
2018-11-29T12:00:26.044Z,12.59
2018-11-29T12:01:26.080Z,12.22
2018-11-29T12:02:27.591Z,12.13
2018-11-29T12:03:26.142Z,12.04
2018-11-29T12:04:26.173Z,12.00
2018-11-29T12:05:26.206Z,12.23
2018-11-29T12:06:26.238Z,12.33
2018-11-29T12:07:26.278Z,12.26
2018-11-29T12:08:26.301Z,12.18
2018-11-29T12:09:26.334Z,12.16
2018-11-29T12:10:26.364Z,11.79
2018-11-29T12:11:26.396Z,11.75
2018-11-29T12:12:26.426Z,11.93
2018-11-29T12:13:26.459Z,11.85
2018-11-29T12:14:26.491Z,11.59
2018-11-29T12:15:26.553Z,11.56
2018-11-29T12:16:26.551Z,11.69
2018-11-29T12:17:26.581Z,11.75
2018-11-29T12:18:26.613Z,11.77
2018-11-29T12:19:26.645Z,11.57
2018-11-29T12:20:26.676Z,11.67
2018-11-29T12:21:26.708Z,11.84
2018-11-29T12:22:26.741Z,11.87
2018-11-29T12:23:26.771Z,11.79
2018-11-29T12:24:26.799Z,11.79
2018-11-29T12:25:26.832Z,11.74
2018-11-29T12:26:26.860Z,11.84
2018-11-29T12:27:26.893Z,11.72
2018-11-29T12:28:26.924Z,11.54
2018-11-29T12:29:26.961Z,11.54
2018-11-29T12:30:26.987Z,11.53
2018-11-29T12:31:27.016Z,11.05
2018-11-29T12:32:27.233Z,10.69
2018-11-29T12:33:27.079Z,10.29
2018-11-29T12:34:27.131Z,9.98
2018-11-29T12:35:27.140Z,9.85
2018-11-29T12:36:27.171Z,9.45
2018-11-29T12:37:27.200Z,9.06
2018-11-29T12:38:27.231Z,8.93
2018-11-29T12:39:27.262Z,8.85
2018-11-29T12:40:27.290Z,8.76
2018-11-29T12:41:27.320Z,8.76
2018-11-29T12:42:27.350Z,8.80
2018-11-29T12:43:27.384Z,8.76
2018-11-29T12:44:27.431Z,8.76
2018-11-29T12:45:27.446Z,8.76
2018-11-29T12:46:27.476Z,8.61
2018-11-29T12:47:27.510Z,8.50
2018-11-29T12:48:27.529Z,8.47
2018-11-29T12:49:27.564Z,8.37
2018-11-29T12:50:27.593Z,8.22
2018-11-29T12:51:27.621Z,8.07
2018-11-29T12:52:27.649Z,8.02
2018-11-29T12:53:27.680Z,8.00
2018-11-29T12:54:27.707Z,8.00
2018-11-29T12:55:27.737Z,8.07
2018-11-29T12:56:27.767Z,8.09
2018-11-29T12:57:27.798Z,8.04
2018-11-29T12:58:27.829Z,8.06
2018-11-29T12:59:27.855Z,8.07
2018-11-29T13:00:27.884Z,7.96
2018-11-29T13:01:27.942Z,7.95
2018-11-29T13:02:27.950Z,7.91
2018-11-29T13:03:27.973Z,7.81
2018-11-29T13:04:27.999Z,7.77
2018-11-29T13:05:28.030Z,7.57
2018-11-29T13:06:28.061Z,7.55
2018-11-29T13:07:28.087Z,7.69
2018-11-29T13:08:28.125Z,7.70
2018-11-29T13:09:28.146Z,7.91
2018-11-29T13:10:28.179Z,7.85
2018-11-29T13:11:28.225Z,7.94
2018-11-29T13:12:28.234Z,8.04
2018-11-29T13:13:28.261Z,8.03
2018-11-29T13:14:28.289Z,8.13
2018-11-29T13:15:28.343Z,8.14
2018-11-29T13:16:28.346Z,8.28
2018-11-29T13:17:28.379Z,8.46
2018-11-29T13:18:28.406Z,8.46
2018-11-29T13:19:28.434Z,8.45
2018-11-29T13:20:32.449Z,8.50